Time;durP1;ratioP1;P1;durP2;ratioP2;P2;SDS_P1;SDS_P2;PMS_P1;PMS_P2;Temp;Humidity;BMP_temperature;BMP_pressure;BME280_temperature;BME280_humidity;BME280_pressure;Samples;Min_cycle;Max_cycle;Signal;HPM_P1;HPM_P2
2022/10/27 00:01:48;;;;;;;;;;;13.90;99.90;;;;;;5056415;28;19950;-63
2022/10/27 00:04:14;;;;;;;;;;;14.00;99.90;;;;;;5038786;28;19920;-63
2022/10/27 00:06:39;;;;;;;;;;;14.00;99.90;;;;;;5054488;28;19966;-63
2022/10/27 00:09:05;;;;;;;;;;;14.00;99.90;;;;;;5058189;28;19917;-63
2022/10/27 00:11:30;;;;;;;;;;;13.90;99.90;;;;;;5057059;28;19965;-64
2022/10/27 00:13:56;;;;;;;;;;;13.70;99.90;;;;;;5055110;28;20253;-63
2022/10/27 00:16:21;;;;;;;;;;;13.80;99.90;;;;;;5050091;28;19913;-63
2022/10/27 00:18:47;;;;;;;;;;;13.90;99.90;;;;;;5053178;28;19999;-63
2022/10/27 00:21:14;;;;;;;;;;;13.90;99.90;;;;;;5050241;28;19964;-64
2022/10/27 00:23:39;;;;;;;;;;;13.80;99.90;;;;;;5050936;28;19924;-63
2022/10/27 00:26:06;;;;;;;;;;;13.70;99.90;;;;;;5061470;28;19913;-63
2022/10/27 00:28:32;;;;;;;;;;;13.70;99.90;;;;;;5062831;28;19916;-63
2022/10/27 00:31:05;;;;;;;;;;;13.70;99.90;;;;;;5054406;28;20070;-63
2022/10/27 00:33:31;;;;;;;;;;;13.70;99.90;;;;;;5061296;28;20003;-64
2022/10/27 00:36:02;;;;;;;;;;;13.70;99.90;;;;;;5060314;28;20000;-64
2022/10/27 00:38:27;;;;;;;;;;;13.70;99.90;;;;;;5052025;28;19913;-63
2022/10/27 00:40:53;;;;;;;;;;;13.60;99.90;;;;;;5057229;28;20310;-62
2022/10/27 00:43:23;;;;;;;;;;;13.60;99.90;;;;;;5040539;28;20265;-63
2022/10/27 00:45:48;;;;;;;;;;;13.50;99.90;;;;;;5065927;28;19916;-62
2022/10/27 00:48:14;;;;;;;;;;;13.60;99.90;;;;;;5061190;28;19958;-63
2022/10/27 00:50:39;;;;;;;;;;;13.80;99.90;;;;;;5058341;28;19913;-63
2022/10/27 00:53:05;;;;;;;;;;;14.00;99.90;;;;;;5058981;28;19912;-61
2022/10/27 00:55:32;;;;;;;;;;;14.10;99.90;;;;;;5057432;28;19966;-62
2022/10/27 00:57:59;;;;;;;;;;;14.00;99.90;;;;;;5062572;28;19934;-62
2022/10/27 01:00:25;;;;;;;;;;;13.90;99.90;;;;;;5055930;28;19971;-62
2022/10/27 01:02:50;;;;;;;;;;;13.80;99.90;;;;;;5056071;28;20392;-63
2022/10/27 01:05:25;;;;;;;;;;;13.90;99.90;;;;;;5053241;28;19916;-62
2022/10/27 01:07:54;;;;;;;;;;;13.90;99.90;;;;;;5061712;28;19913;-62
2022/10/27 01:10:20;;;;;;;;;;;13.90;99.90;;;;;;5051846;28;19913;-62
2022/10/27 01:12:46;;;;;;;;;;;13.80;99.90;;;;;;5057401;28;20287;-62
2022/10/27 01:15:11;;;;;;;;;;;13.70;99.90;;;;;;5064908;28;19916;-62
2022/10/27 01:17:57;;;;;;;;;;;13.60;99.90;;;;;;5058814;28;20402;-62
2022/10/27 01:20:42;;;;;;;;;;;13.50;99.90;;;;;;5058902;28;19913;-62
2022/10/27 01:23:14;;;;;;;;;;;13.50;99.90;;;;;;5058541;28;20030;-62
2022/10/27 01:25:52;;;;;;;;;;;13.50;99.90;;;;;;5062979;28;19917;-62
2022/10/27 01:28:25;;;;;;;;;;;13.60;99.90;;;;;;5036210;28;20987;-62
2022/10/27 01:30:59;;;;;;;;;;;13.60;99.90;;;;;;5064784;28;20007;-62
2022/10/27 01:33:29;;;;;;;;;;;13.60;99.90;;;;;;5050820;28;19956;-62
2022/10/27 01:36:10;;;;;;;;;;;13.60;99.90;;;;;;5050373;28;19912;-62
2022/10/27 01:38:42;;;;;;;;;;;13.60;99.90;;;;;;5051820;28;20327;-62
2022/10/27 01:41:19;;;;;;;;;;;13.70;99.90;;;;;;5064805;28;19919;-62
2022/10/27 01:43:46;;;;;;;;;;;13.80;99.90;;;;;;5055981;28;19921;-62
2022/10/27 01:46:12;;;;;;;;;;;13.80;99.90;;;;;;5059325;28;19918;-62
2022/10/27 01:48:38;;;;;;;;;;;13.80;99.90;;;;;;5054858;28;19912;-62
2022/10/27 01:51:05;;;;;;;;;;;13.80;99.90;;;;;;5066688;28;20330;-63
2022/10/27 01:53:36;;;;;;;;;;;13.80;99.90;;;;;;5059833;28;19913;-63
2022/10/27 01:56:11;;;;;;;;;;;13.80;99.90;;;;;;5057896;28;19912;-63
2022/10/27 01:58:42;;;;;;;;;;;13.90;99.90;;;;;;5054387;28;19920;-63
2022/10/27 02:01:14;;;;;;;;;;;14.00;99.90;;;;;;5047128;28;19966;-63
2022/10/27 02:03:49;;;;;;;;;;;13.80;99.90;;;;;;5042504;28;20015;-63
2022/10/27 02:06:19;;;;;;;;;;;13.90;99.90;;;;;;5059999;28;20315;-63
2022/10/27 02:08:51;;;;;;;;;;;14.00;99.90;;;;;;5062788;28;19913;-62
2022/10/27 02:11:17;;;;;;;;;;;14.00;99.90;;;;;;5045436;28;19960;-62
2022/10/27 02:13:44;;;;;;;;;;;14.00;99.90;;;;;;5067012;28;19960;-63
2022/10/27 02:16:09;;;;;;;;;;;14.00;99.90;;;;;;5060921;28;20015;-63
2022/10/27 02:18:41;;;;;;;;;;;13.90;99.90;;;;;;5063969;28;19944;-62
2022/10/27 02:21:09;;;;;;;;;;;13.90;99.90;;;;;;5050814;28;20323;-62
2022/10/27 02:23:34;;;;;;;;;;;13.90;99.90;;;;;;5064682;28;19928;-62
2022/10/27 02:26:06;;;;;;;;;;;13.90;99.90;;;;;;5061530;28;20015;-62
2022/10/27 02:28:34;;;;;;;;;;;13.80;99.90;;;;;;5042768;28;20697;-62
2022/10/27 02:31:00;;;;;;;;;;;13.70;99.90;;;;;;5060139;28;19921;-61
2022/10/27 02:33:26;;;;;;;;;;;13.60;99.90;;;;;;5056834;28;19913;-63
2022/10/27 02:35:52;;;;;;;;;;;13.70;99.90;;;;;;5052677;28;20280;-62
2022/10/27 02:38:17;;;;;;;;;;;13.60;99.90;;;;;;5054256;28;19919;-63
2022/10/27 02:40:43;;;;;;;;;;;13.60;99.90;;;;;;5061080;28;20305;-63
2022/10/27 02:43:08;;;;;;;;;;;13.70;99.90;;;;;;5058666;28;19947;-63
2022/10/27 02:45:34;;;;;;;;;;;13.60;99.90;;;;;;5052839;28;19917;-62
2022/10/27 02:47:59;;;;;;;;;;;13.60;99.90;;;;;;5049192;28;19913;-63
2022/10/27 02:50:25;;;;;;;;;;;13.60;99.90;;;;;;5050826;28;19913;-63
2022/10/27 02:52:50;;;;;;;;;;;13.70;99.90;;;;;;5058443;28;19917;-63
2022/10/27 02:55:16;;;;;;;;;;;13.70;99.90;;;;;;5046261;28;20284;-63
2022/10/27 02:57:41;;;;;;;;;;;13.70;99.90;;;;;;5057700;28;20331;-63
2022/10/27 03:00:07;;;;;;;;;;;13.60;99.90;;;;;;5055594;28;20372;-63
2022/10/27 03:02:33;;;;;;;;;;;13.60;99.90;;;;;;5057399;28;19921;-63
2022/10/27 03:04:58;;;;;;;;;;;13.50;99.90;;;;;;5050535;28;19921;-63
2022/10/27 03:07:24;;;;;;;;;;;13.50;99.90;;;;;;5055206;28;19912;-63
2022/10/27 03:09:49;;;;;;;;;;;13.50;99.90;;;;;;5052573;28;19920;-63
2022/10/27 03:12:15;;;;;;;;;;;13.60;99.90;;;;;;5050707;28;19920;-63
2022/10/27 03:14:40;;;;;;;;;;;13.60;99.90;;;;;;5059609;28;19916;-63
2022/10/27 03:17:06;;;;;;;;;;;13.60;99.90;;;;;;5055038;28;20422;-63
2022/10/27 03:19:31;;;;;;;;;;;13.60;99.90;;;;;;5050835;28;20315;-63
2022/10/27 03:21:57;;;;;;;;;;;13.50;99.90;;;;;;5057107;28;19920;-63
2022/10/27 03:24:22;;;;;;;;;;;13.60;99.90;;;;;;5051618;28;19961;-63
2022/10/27 03:26:48;;;;;;;;;;;13.60;99.90;;;;;;5055368;28;20356;-63
2022/10/27 03:29:13;;;;;;;;;;;13.60;99.90;;;;;;5049196;28;19921;-63
2022/10/27 03:31:39;;;;;;;;;;;13.60;99.90;;;;;;5054137;28;20376;-63
2022/10/27 03:34:04;;;;;;;;;;;13.70;99.90;;;;;;5052496;28;19920;-63
2022/10/27 03:36:30;;;;;;;;;;;13.70;99.90;;;;;;5049362;28;20368;-63
2022/10/27 03:38:55;;;;;;;;;;;13.70;99.90;;;;;;5060673;28;19913;-63
2022/10/27 03:41:21;;;;;;;;;;;13.80;99.90;;;;;;5053111;28;19913;-63
2022/10/27 03:43:47;;;;;;;;;;;13.80;99.90;;;;;;5049695;28;19920;-63
2022/10/27 03:46:12;;;;;;;;;;;13.90;99.90;;;;;;5043556;28;19957;-63
2022/10/27 03:48:38;;;;;;;;;;;13.90;99.90;;;;;;5053452;28;19913;-63
2022/10/27 03:51:03;;;;;;;;;;;13.80;99.90;;;;;;5057256;28;19955;-63
2022/10/27 03:53:29;;;;;;;;;;;13.80;99.90;;;;;;5050112;28;20284;-63
2022/10/27 03:55:54;;;;;;;;;;;13.90;99.90;;;;;;5049149;28;19917;-63
2022/10/27 03:58:20;;;;;;;;;;;13.80;99.90;;;;;;5049133;28;20387;-63
2022/10/27 04:00:45;;;;;;;;;;;13.80;99.90;;;;;;5053343;28;19913;-62
2022/10/27 04:03:11;;;;;;;;;;;13.90;99.90;;;;;;5047631;28;19989;-62
2022/10/27 04:05:37;;;;;;;;;;;14.10;99.90;;;;;;5049024;28;19920;-62
2022/10/27 04:08:02;;;;;;;;;;;14.20;99.90;;;;;;5060273;28;19919;-62
2022/10/27 04:10:28;;;;;;;;;;;14.20;99.90;;;;;;5051300;28;20327;-62
2022/10/27 04:12:54;;;;;;;;;;;14.20;99.90;;;;;;5061378;28;20011;-62
2022/10/27 04:15:21;;;;;;;;;;;14.30;99.90;;;;;;5055484;28;19917;-62
2022/10/27 04:17:46;;;;;;;;;;;14.40;99.90;;;;;;5049836;28;19967;-62
2022/10/27 04:20:12;;;;;;;;;;;14.50;99.90;;;;;;5049244;28;19913;-62
2022/10/27 04:22:38;;;;;;;;;;;14.60;99.90;;;;;;5057537;28;19921;-63
2022/10/27 04:25:04;;;;;;;;;;;14.60;99.90;;;;;;5048782;28;19913;-63
2022/10/27 04:27:29;;;;;;;;;;;14.70;99.90;;;;;;5051481;28;20255;-62
2022/10/27 04:29:55;;;;;;;;;;;14.80;99.90;;;;;;5056082;28;20435;-65
2022/10/27 04:32:20;;;;;;;;;;;15.10;99.90;;;;;;5054217;28;19913;-63
2022/10/27 04:34:46;;;;;;;;;;;15.20;99.90;;;;;;5046326;28;19912;-63
2022/10/27 04:37:12;;;;;;;;;;;15.40;99.90;;;;;;5043444;28;19913;-63
2022/10/27 04:39:37;;;;;;;;;;;15.50;99.90;;;;;;5053986;28;19913;-63
2022/10/27 04:42:03;;;;;;;;;;;15.60;99.90;;;;;;5054371;28;19924;-62
2022/10/27 04:44:28;;;;;;;;;;;15.70;99.90;;;;;;5056275;28;19917;-64
2022/10/27 04:46:54;;;;;;;;;;;15.80;99.90;;;;;;5048074;28;19916;-63
2022/10/27 04:49:19;;;;;;;;;;;15.80;99.90;;;;;;5054174;28;19913;-62
2022/10/27 04:51:45;;;;;;;;;;;15.80;99.90;;;;;;5052791;28;20383;-62
2022/10/27 04:54:10;;;;;;;;;;;15.80;99.90;;;;;;5051587;28;19932;-62
2022/10/27 04:56:36;;;;;;;;;;;15.70;99.90;;;;;;5051781;28;20322;-64
2022/10/27 04:59:01;;;;;;;;;;;15.70;99.90;;;;;;5052437;28;20372;-63
2022/10/27 05:01:27;;;;;;;;;;;15.80;99.90;;;;;;5047595;28;19917;-64
2022/10/27 05:03:52;;;;;;;;;;;16.00;99.90;;;;;;5059482;28;19913;-64
2022/10/27 05:06:18;;;;;;;;;;;16.10;99.90;;;;;;5054101;28;20402;-64
2022/10/27 05:08:43;;;;;;;;;;;16.10;99.90;;;;;;5056283;28;19920;-64
2022/10/27 05:11:09;;;;;;;;;;;16.00;99.90;;;;;;5060452;28;19958;-61
2022/10/27 05:13:35;;;;;;;;;;;16.20;99.90;;;;;;5046579;28;19943;-62
2022/10/27 05:16:01;;;;;;;;;;;16.10;99.90;;;;;;5043401;28;19917;-62
2022/10/27 05:18:27;;;;;;;;;;;16.30;99.90;;;;;;5059674;28;19912;-63
2022/10/27 05:20:52;;;;;;;;;;;16.40;99.90;;;;;;5057545;28;19919;-62
2022/10/27 05:23:18;;;;;;;;;;;16.50;99.90;;;;;;5056116;28;21019;-62
2022/10/27 05:25:43;;;;;;;;;;;16.50;99.90;;;;;;5054719;28;20337;-61
2022/10/27 05:28:10;;;;;;;;;;;16.60;99.90;;;;;;5058572;28;20268;-62
2022/10/27 05:30:38;;;;;;;;;;;16.60;99.90;;;;;;5053506;28;20005;-62
2022/10/27 05:33:04;;;;;;;;;;;16.60;99.90;;;;;;5051526;28;19913;-62
2022/10/27 05:35:30;;;;;;;;;;;16.70;99.90;;;;;;5053859;28;19919;-62
2022/10/27 05:37:55;;;;;;;;;;;16.60;99.90;;;;;;5060440;28;19954;-62
2022/10/27 05:40:21;;;;;;;;;;;16.70;99.90;;;;;;5057596;28;20003;-62
2022/10/27 05:42:47;;;;;;;;;;;16.70;99.90;;;;;;5048399;28;19964;-63
2022/10/27 05:45:13;;;;;;;;;;;16.60;99.90;;;;;;5056464;28;20284;-62
2022/10/27 05:47:39;;;;;;;;;;;16.60;99.90;;;;;;5051839;28;19913;-62
2022/10/27 05:50:04;;;;;;;;;;;16.60;99.90;;;;;;5066801;28;20337;-62
2022/10/27 05:52:30;;;;;;;;;;;16.70;99.90;;;;;;5053792;28;19912;-63
2022/10/27 05:54:55;;;;;;;;;;;16.70;99.90;;;;;;5056277;28;19913;-63
2022/10/27 05:57:21;;;;;;;;;;;16.80;99.90;;;;;;5052484;28;19912;-63
2022/10/27 05:59:46;;;;;;;;;;;16.80;99.90;;;;;;5058664;28;19913;-64
2022/10/27 06:02:12;;;;;;;;;;;16.70;99.90;;;;;;5051141;28;20261;-64
2022/10/27 06:04:38;;;;;;;;;;;16.70;99.90;;;;;;5052979;28;20383;-64
2022/10/27 06:07:04;;;;;;;;;;;16.60;99.90;;;;;;5050753;28;20008;-63
2022/10/27 06:09:29;;;;;;;;;;;16.60;99.90;;;;;;5063957;28;20015;-62
2022/10/27 06:11:55;;;;;;;;;;;16.50;99.90;;;;;;5063288;28;19967;-62
2022/10/27 06:14:26;;;;;;;;;;;16.40;99.90;;;;;;5056747;28;19913;-63
2022/10/27 06:16:52;;;;;;;;;;;16.30;99.90;;;;;;5049162;28;19916;-63
2022/10/27 06:19:17;;;;;;;;;;;16.30;99.90;;;;;;5048094;28;19920;-63
2022/10/27 06:21:52;;;;;;;;;;;16.20;99.90;;;;;;5052321;28;20275;-63
2022/10/27 06:24:17;;;;;;;;;;;16.20;99.90;;;;;;5053648;28;19945;-63
2022/10/27 06:26:43;;;;;;;;;;;16.10;99.90;;;;;;5064548;28;19916;-63
2022/10/27 06:29:08;;;;;;;;;;;16.10;99.90;;;;;;5063367;28;19913;-62
2022/10/27 06:31:34;;;;;;;;;;;16.20;99.90;;;;;;5065033;28;19916;-63
2022/10/27 06:33:59;;;;;;;;;;;16.20;99.90;;;;;;5055795;28;19921;-63
2022/10/27 06:36:25;;;;;;;;;;;16.10;99.90;;;;;;5046269;28;19919;-63
2022/10/27 06:38:50;;;;;;;;;;;16.00;99.90;;;;;;5060267;28;19913;-63
2022/10/27 06:41:16;;;;;;;;;;;16.00;99.90;;;;;;5053185;28;19935;-63
2022/10/27 06:43:41;;;;;;;;;;;16.10;99.90;;;;;;5052167;28;20300;-64
2022/10/27 06:46:07;;;;;;;;;;;16.20;99.90;;;;;;5052674;28;20269;-64
2022/10/27 06:48:33;;;;;;;;;;;16.20;99.90;;;;;;5052361;28;19917;-63
2022/10/27 06:50:59;;;;;;;;;;;16.30;99.90;;;;;;5038950;28;19912;-63
2022/10/27 06:53:24;;;;;;;;;;;16.20;99.90;;;;;;5047328;28;20388;-64
2022/10/27 06:55:50;;;;;;;;;;;16.00;99.90;;;;;;5038510;28;19935;-64
2022/10/27 06:58:15;;;;;;;;;;;16.00;99.90;;;;;;5040446;28;19913;-64
2022/10/27 07:00:41;;;;;;;;;;;15.90;99.90;;;;;;5044691;28;19913;-64
2022/10/27 07:03:08;;;;;;;;;;;15.90;99.90;;;;;;5041419;28;19956;-63
2022/10/27 07:05:33;;;;;;;;;;;15.90;99.90;;;;;;5039660;28;19956;-63
2022/10/27 07:07:59;;;;;;;;;;;15.80;99.90;;;;;;5050246;28;20347;-64
2022/10/27 07:10:25;;;;;;;;;;;16.10;99.90;;;;;;5046620;28;20372;-63
2022/10/27 07:12:51;;;;;;;;;;;15.90;99.90;;;;;;5048956;28;19962;-63
2022/10/27 07:15:17;;;;;;;;;;;15.90;99.90;;;;;;5037644;28;19972;-64
2022/10/27 07:17:42;;;;;;;;;;;15.90;99.90;;;;;;5041922;28;20365;-64
2022/10/27 07:20:08;;;;;;;;;;;15.90;99.90;;;;;;5047256;28;19920;-64
2022/10/27 07:22:34;;;;;;;;;;;15.90;99.90;;;;;;5036845;28;19925;-64
2022/10/27 07:24:59;;;;;;;;;;;15.90;99.90;;;;;;5040439;28;20276;-64
2022/10/27 07:27:25;;;;;;;;;;;15.90;99.90;;;;;;5045616;28;19966;-64
2022/10/27 07:29:50;;;;;;;;;;;15.90;99.90;;;;;;5055129;28;19955;-64
2022/10/27 07:32:16;;;;;;;;;;;15.90;99.90;;;;;;5043229;28;19994;-64
2022/10/27 07:34:41;;;;;;;;;;;15.90;99.90;;;;;;5048267;28;19921;-65
2022/10/27 07:37:07;;;;;;;;;;;16.00;99.90;;;;;;5046262;28;19916;-65
2022/10/27 07:39:32;;;;;;;;;;;15.90;99.90;;;;;;5053312;28;19959;-65
2022/10/27 07:41:58;;;;;;;;;;;16.00;99.90;;;;;;5054979;28;19921;-64
2022/10/27 07:44:23;;;;;;;;;;;16.00;99.90;;;;;;5054942;28;19923;-64
2022/10/27 07:46:49;;;;;;;;;;;16.00;99.90;;;;;;5049854;28;20003;-64
2022/10/27 07:49:14;;;;;;;;;;;16.00;99.90;;;;;;5049266;28;19916;-65
2022/10/27 07:51:40;;;;;;;;;;;16.00;99.90;;;;;;5050494;28;19914;-64
2022/10/27 07:54:05;;;;;;;;;;;16.00;99.90;;;;;;5045284;28;19913;-64
2022/10/27 07:56:31;;;;;;;;;;;16.00;99.90;;;;;;5052381;28;19912;-65
2022/10/27 07:58:57;;;;;;;;;;;16.10;99.90;;;;;;5060587;28;19913;-64
2022/10/27 08:01:22;;;;;;;;;;;16.10;99.90;;;;;;5052518;28;19913;-64
2022/10/27 08:03:48;;;;;;;;;;;16.30;99.90;;;;;;5045811;28;19966;-66
2022/10/27 08:06:14;;;;;;;;;;;16.30;99.90;;;;;;5052669;28;20065;-63
2022/10/27 08:08:39;;;;;;;;;;;16.40;99.90;;;;;;5052713;28;20012;-63
2022/10/27 08:11:05;;;;;;;;;;;16.60;99.90;;;;;;5056587;28;19954;-64
2022/10/27 08:13:31;;;;;;;;;;;16.70;99.90;;;;;;5046615;28;20287;-65
2022/10/27 08:15:58;;;;;;;;;;;16.80;99.90;;;;;;5050763;28;20401;-65
2022/10/27 08:18:23;;;;;;;;;;;16.90;99.90;;;;;;5052954;28;19913;-65
2022/10/27 08:20:49;;;;;;;;;;;17.00;99.90;;;;;;5050947;28;20012;-66
2022/10/27 08:23:15;;;;;;;;;;;17.10;99.90;;;;;;5047774;28;19925;-65
2022/10/27 08:25:41;;;;;;;;;;;17.20;99.90;;;;;;5049322;28;19928;-65
2022/10/27 08:28:08;;;;;;;;;;;17.20;99.90;;;;;;5052132;28;19913;-65
2022/10/27 08:30:34;;;;;;;;;;;17.30;99.90;;;;;;5049389;28;19912;-65
2022/10/27 08:33:00;;;;;;;;;;;17.30;99.90;;;;;;5062030;28;19939;-65
2022/10/27 08:35:27;;;;;;;;;;;17.50;99.90;;;;;;5051320;28;19913;-66
2022/10/27 08:37:59;;;;;;;;;;;17.40;99.90;;;;;;5049133;28;19917;-65
2022/10/27 08:40:31;;;;;;;;;;;17.50;99.90;;;;;;5054074;28;20289;-66
2022/10/27 08:42:59;;;;;;;;;;;17.50;99.90;;;;;;5055976;28;20375;-66
2022/10/27 08:45:27;;;;;;;;;;;17.50;99.90;;;;;;5059985;28;19920;-66
2022/10/27 08:47:57;;;;;;;;;;;17.60;99.90;;;;;;5056562;28;19995;-65
2022/10/27 08:50:24;;;;;;;;;;;17.70;99.90;;;;;;5055607;28;19913;-65
2022/10/27 08:52:53;;;;;;;;;;;17.70;99.90;;;;;;5048869;28;19920;-65
2022/10/27 08:55:21;;;;;;;;;;;17.70;99.90;;;;;;5066432;28;19919;-65
2022/10/27 08:57:51;;;;;;;;;;;17.70;99.90;;;;;;5059954;28;19944;-65
2022/10/27 09:00:16;;;;;;;;;;;17.70;99.90;;;;;;5053546;28;19962;-66
2022/10/27 09:02:42;;;;;;;;;;;17.60;99.90;;;;;;5049224;28;19967;-65
2022/10/27 09:05:26;;;;;;;;;;;17.60;99.90;;;;;;5067198;28;19917;-65
2022/10/27 09:07:56;;;;;;;;;;;17.60;99.90;;;;;;5049697;28;19913;-64
2022/10/27 09:10:45;;;;;;;;;;;17.70;99.90;;;;;;5050935;28;19921;-64
2022/10/27 09:13:17;;;;;;;;;;;17.60;99.90;;;;;;5051866;28;20011;-65
2022/10/27 09:15:51;;;;;;;;;;;17.60;99.90;;;;;;5046348;28;19913;-65
2022/10/27 09:18:16;;;;;;;;;;;17.60;99.90;;;;;;5048915;28;19913;-64
2022/10/27 09:20:43;;;;;;;;;;;17.60;99.90;;;;;;5052430;28;20062;-64
2022/10/27 09:23:16;;;;;;;;;;;17.70;99.90;;;;;;5053307;28;20012;-64
2022/10/27 09:25:42;;;;;;;;;;;17.70;99.90;;;;;;5054361;28;19912;-64
2022/10/27 09:28:37;;;;;;;;;;;17.70;99.90;;;;;;5059468;28;19912;-64
2022/10/27 09:31:03;;;;;;;;;;;17.80;99.90;;;;;;4988669;28;19996;-65
2022/10/27 09:33:31;;;;;;;;;;;17.80;99.90;;;;;;4990186;28;19914;-65
2022/10/27 09:35:57;;;;;;;;;;;17.90;99.90;;;;;;4986938;28;19961;-65
2022/10/27 09:38:24;;;;;;;;;;;18.00;99.90;;;;;;4987250;28;19913;-65
2022/10/27 09:40:51;;;;;;;;;;;18.00;99.90;;;;;;4989634;28;19920;-63
2022/10/27 09:43:17;;;;;;;;;;;18.10;99.90;;;;;;4988247;28;20361;-65
2022/10/27 09:45:43;;;;;;;;;;;18.20;99.90;;;;;;4980858;28;19925;-65
2022/10/27 09:48:18;;;;;;;;;;;18.30;99.90;;;;;;4987326;28;19914;-65
2022/10/27 09:50:56;;;;;;;;;;;18.30;99.90;;;;;;4993182;28;19914;-65
2022/10/27 09:53:37;;;;;;;;;;;18.30;99.90;;;;;;5005486;28;20349;-65
2022/10/27 09:56:03;;;;;;;;;;;18.40;99.90;;;;;;4994055;28;20016;-65
2022/10/27 09:58:28;;;;;;;;;;;18.30;99.90;;;;;;5001575;28;19913;-65
2022/10/27 10:00:55;;;;;;;;;;;18.30;99.90;;;;;;5005917;28;19917;-64
2022/10/27 10:03:21;;;;;;;;;;;18.30;99.90;;;;;;4999204;28;19926;-65
2022/10/27 10:06:00;;;;;;;;;;;18.50;99.90;;;;;;5003455;28;19952;-65
2022/10/27 10:08:28;;;;;;;;;;;18.40;99.90;;;;;;5054111;28;20292;-64
2022/10/27 10:10:55;;;;;;;;;;;18.40;99.90;;;;;;5045177;28;19959;-64
2022/10/27 10:13:22;;;;;;;;;;;18.40;99.90;;;;;;5046718;28;19963;-65
2022/10/27 10:16:02;;;;;;;;;;;18.50;99.90;;;;;;5052034;28;20334;-65
2022/10/27 10:18:28;;;;;;;;;;;18.50;99.90;;;;;;5043909;28;19916;-65
2022/10/27 10:20:58;;;;;;;;;;;18.60;99.90;;;;;;5041967;28;20418;-65
2022/10/27 10:23:25;;;;;;;;;;;18.60;99.90;;;;;;5060911;28;19927;-65
2022/10/27 10:25:51;;;;;;;;;;;18.60;99.90;;;;;;5053717;28;19913;-64
2022/10/27 10:28:34;;;;;;;;;;;18.60;99.90;;;;;;5045069;28;19999;-65
2022/10/27 10:31:00;;;;;;;;;;;18.70;99.90;;;;;;5059830;28;19982;-65
2022/10/27 10:33:29;;;;;;;;;;;18.70;99.90;;;;;;5057971;28;20269;-65
2022/10/27 10:35:55;;;;;;;;;;;18.70;99.90;;;;;;5050326;28;19913;-65
2022/10/27 10:38:23;;;;;;;;;;;18.80;99.90;;;;;;5053408;28;20296;-65
2022/10/27 10:40:54;;;;;;;;;;;18.80;99.90;;;;;;5051885;28;19919;-65
2022/10/27 10:43:20;;;;;;;;;;;18.90;99.90;;;;;;5048495;28;20495;-65
2022/10/27 10:45:49;;;;;;;;;;;18.80;99.90;;;;;;5052550;28;19953;-65
2022/10/27 10:48:14;;;;;;;;;;;18.90;99.90;;;;;;5057389;28;19913;-64
2022/10/27 10:50:46;;;;;;;;;;;18.90;99.90;;;;;;5047618;28;19917;-65
2022/10/27 10:53:23;;;;;;;;;;;18.90;99.90;;;;;;5057790;28;19920;-65
2022/10/27 10:55:49;;;;;;;;;;;19.00;99.90;;;;;;5047643;28;19919;-65
2022/10/27 10:58:16;;;;;;;;;;;19.10;99.90;;;;;;5050390;28;19912;-64
2022/10/27 11:01:11;;;;;;;;;;;19.10;99.90;;;;;;5037002;28;19913;-64
2022/10/27 11:03:42;;;;;;;;;;;19.10;99.90;;;;;;5052598;28;19972;-64
2022/10/27 11:06:18;;;;;;;;;;;19.50;99.90;;;;;;5041053;28;19913;-64
2022/10/27 11:08:50;;;;;;;;;;;20.30;99.90;;;;;;5056980;28;19912;-65
2022/10/27 11:11:17;;;;;;;;;;;20.80;99.90;;;;;;5048286;28;20364;-65
2022/10/27 11:13:50;;;;;;;;;;;21.10;99.90;;;;;;5050526;28;19989;-64
2022/10/27 11:16:16;;;;;;;;;;;21.40;99.90;;;;;;5043682;28;20266;-65
2022/10/27 11:18:41;;;;;;;;;;;21.50;99.90;;;;;;5039758;28;19912;-65
2022/10/27 11:21:13;;;;;;;;;;;21.70;99.90;;;;;;5047530;28;19913;-62
2022/10/27 11:23:46;;;;;;;;;;;22.00;99.90;;;;;;5031547;28;20396;-64
2022/10/27 11:26:13;;;;;;;;;;;22.00;99.90;;;;;;5047742;28;20387;-64
2022/10/27 11:28:44;;;;;;;;;;;22.10;99.90;;;;;;5054462;28;19917;-63
2022/10/27 11:31:23;;;;;;;;;;;22.00;99.90;;;;;;5051053;28;20369;-65
2022/10/27 11:33:52;;;;;;;;;;;21.50;99.90;;;;;;5053973;28;20364;-65
2022/10/27 11:36:22;;;;;;;;;;;21.30;99.90;;;;;;5049252;28;19924;-65
2022/10/27 11:39:06;;;;;;;;;;;21.30;99.90;;;;;;5058480;28;19927;-65
2022/10/27 11:41:38;;;;;;;;;;;21.30;99.90;;;;;;5042237;28;19913;-64
2022/10/27 11:44:03;;;;;;;;;;;21.70;99.90;;;;;;5049848;28;20055;-63
2022/10/27 11:46:33;;;;;;;;;;;21.80;99.90;;;;;;5048921;28;20379;-64
2022/10/27 11:49:10;;;;;;;;;;;22.00;99.90;;;;;;5054484;28;19920;-63
2022/10/27 11:51:39;;;;;;;;;;;22.10;99.90;;;;;;5049789;28;20077;-65
2022/10/27 11:54:05;;;;;;;;;;;21.80;99.90;;;;;;5053613;28;19913;-64
2022/10/27 11:56:33;;;;;;;;;;;21.80;99.90;;;;;;5043508;28;19913;-63
2022/10/27 11:59:03;;;;;;;;;;;21.70;99.90;;;;;;5049281;28;19913;-64
2022/10/27 12:01:31;;;;;;;;;;;21.90;99.90;;;;;;5054017;28;20308;-64
2022/10/27 12:03:58;;;;;;;;;;;21.70;99.90;;;;;;5050579;28;20040;-65
2022/10/27 12:06:43;;;;;;;;;;;21.80;99.90;;;;;;5052500;28;19913;-64
2022/10/27 12:09:20;;;;;;;;;;;22.00;99.90;;;;;;5046763;28;20323;-63
2022/10/27 12:11:58;;;;;;;;;;;22.20;99.90;;;;;;5055372;28;19917;-65
2022/10/27 12:14:29;;;;;;;;;;;22.50;99.90;;;;;;5046426;28;19913;-64
2022/10/27 12:17:05;;;;;;;;;;;22.50;99.90;;;;;;5048858;28;19958;-64
2022/10/27 12:19:37;;;;;;;;;;;22.40;99.90;;;;;;5052131;28;19966;-64
2022/10/27 12:22:21;;;;;;;;;;;22.40;99.90;;;;;;5055750;28;19921;-64
2022/10/27 12:24:50;;;;;;;;;;;22.30;99.90;;;;;;5042253;28;20015;-64
2022/10/27 12:27:21;;;;;;;;;;;22.20;99.90;;;;;;5056266;28;19920;-64
2022/10/27 12:29:48;;;;;;;;;;;22.50;99.90;;;;;;5055664;28;19913;-65
2022/10/27 12:32:17;;;;;;;;;;;22.60;99.90;;;;;;5057889;28;19971;-65
2022/10/27 12:34:50;;;;;;;;;;;22.30;99.90;;;;;;5061040;28;20003;-64
2022/10/27 12:37:21;;;;;;;;;;;21.90;99.90;;;;;;5058210;28;19919;-65
2022/10/27 12:39:47;;;;;;;;;;;21.60;99.90;;;;;;5057400;28;19964;-64
2022/10/27 12:42:35;;;;;;;;;;;21.40;99.90;;;;;;5058522;28;19972;-64
2022/10/27 12:45:17;;;;;;;;;;;21.40;99.90;;;;;;5053452;28;19913;-65
2022/10/27 12:47:42;;;;;;;;;;;21.20;99.90;;;;;;5054020;28;19913;-65
2022/10/27 12:50:08;;;;;;;;;;;21.30;99.90;;;;;;5058975;28;19919;-63
2022/10/27 12:52:38;;;;;;;;;;;21.10;99.90;;;;;;5053298;28;19920;-63
2022/10/27 12:55:36;;;;;;;;;;;21.00;99.90;;;;;;5067081;28;19912;-64
2022/10/27 12:58:04;;;;;;;;;;;21.00;99.90;;;;;;5057091;28;19916;-64
2022/10/27 13:00:39;;;;;;;;;;;21.60;99.90;;;;;;5059460;28;19967;-65
2022/10/27 13:03:17;;;;;;;;;;;22.10;99.90;;;;;;5049123;28;20305;-65
2022/10/27 13:05:42;;;;;;;;;;;22.70;99.90;;;;;;5057988;28;19913;-65
2022/10/27 13:08:17;;;;;;;;;;;22.80;99.90;;;;;;5040641;28;21349;-66
2022/10/27 13:10:56;;;;;;;;;;;22.60;99.90;;;;;;5043417;28;19992;-65
2022/10/27 13:13:25;;;;;;;;;;;22.20;99.90;;;;;;5047974;28;19956;-65
2022/10/27 13:15:53;;;;;;;;;;;22.20;99.90;;;;;;5051011;28;19913;-65
2022/10/27 13:18:38;;;;;;;;;;;22.10;99.90;;;;;;5056407;28;20395;-65
2022/10/27 13:21:11;;;;;;;;;;;21.50;99.90;;;;;;5054782;28;20446;-65
2022/10/27 13:23:43;;;;;;;;;;;21.30;99.90;;;;;;5051193;28;20400;-64
2022/10/27 13:26:22;;;;;;;;;;;20.90;99.90;;;;;;5053249;28;20015;-64
2022/10/27 13:28:57;;;;;;;;;;;20.70;99.90;;;;;;5060279;28;19959;-64
2022/10/27 13:31:23;;;;;;;;;;;20.30;99.90;;;;;;5053479;28;19924;-64
2022/10/27 13:33:58;;;;;;;;;;;20.50;99.90;;;;;;5048359;28;19919;-64
2022/10/27 13:36:25;;;;;;;;;;;20.60;99.90;;;;;;5053328;28;20308;-64
2022/10/27 13:39:11;;;;;;;;;;;20.80;99.90;;;;;;5055555;28;19920;-64
2022/10/27 13:41:48;;;;;;;;;;;20.80;99.90;;;;;;5057649;28;19916;-64
2022/10/27 13:44:33;;;;;;;;;;;20.80;99.90;;;;;;5057840;28;19947;-64
2022/10/27 13:47:02;;;;;;;;;;;20.60;99.90;;;;;;5053680;28;20433;-64
2022/10/27 13:49:36;;;;;;;;;;;20.60;99.90;;;;;;5051244;28;20015;-63
2022/10/27 13:52:13;;;;;;;;;;;20.50;99.90;;;;;;5054278;28;19913;-63
2022/10/27 13:54:53;;;;;;;;;;;20.40;99.90;;;;;;5050411;28;20015;-64
2022/10/27 13:57:42;;;;;;;;;;;20.30;99.90;;;;;;5053860;28;19912;-64
2022/10/27 14:00:16;;;;;;;;;;;20.20;99.90;;;;;;5052812;28;19973;-63
2022/10/27 14:02:48;;;;;;;;;;;20.30;99.90;;;;;;5061792;28;19928;-64
2022/10/27 14:05:37;;;;;;;;;;;20.30;99.90;;;;;;5045048;28;19913;-64
2022/10/27 14:08:03;;;;;;;;;;;20.40;99.90;;;;;;5052325;28;20367;-65
2022/10/27 14:10:29;;;;;;;;;;;20.60;99.90;;;;;;5053845;28;20029;-64
2022/10/27 14:12:54;;;;;;;;;;;20.60;99.90;;;;;;5054519;28;20003;-63
2022/10/27 14:15:27;;;;;;;;;;;20.70;99.90;;;;;;5045221;28;19954;-65
2022/10/27 14:17:53;;;;;;;;;;;20.60;99.90;;;;;;5053587;28;19912;-65
2022/10/27 14:20:23;;;;;;;;;;;20.90;99.90;;;;;;5047597;28;20364;-64
2022/10/27 14:22:50;;;;;;;;;;;21.10;99.90;;;;;;5050759;28;20292;-64
2022/10/27 14:25:24;;;;;;;;;;;20.90;99.90;;;;;;5053561;28;19958;-63